Time;durP1;ratioP1;P1;durP2;ratioP2;P2;SDS_P1;SDS_P2;PMS_P1;PMS_P2;Temp;Humidity;BMP_temperature;BMP_pressure;BME280_temperature;BME280_humidity;BME280_pressure;Samples;Min_cycle;Max_cycle;Signal;HPM_P1;HPM_P2
2023/09/21 00:01:06;;;;;;;7.10;5.00;;;;;;;25.74;40.18;101018.44;103484;1294;61386;-83
2023/09/21 00:03:35;;;;;;;10.40;5.50;;;;;;;25.74;40.06;101020.26;103329;1292;65834;-83
2023/09/21 00:06:03;;;;;;;8.00;4.80;;;;;;;25.74;40.02;101019.17;103426;1292;61871;-83
2023/09/21 00:08:33;;;;;;;7.10;4.80;;;;;;;25.74;40.13;101021.14;103388;1291;61298;-83
2023/09/21 00:10:58;;;;;;;;;;;;;;;25.74;40.13;101023.88;103392;1293;64899;-83
2023/09/21 00:13:27;;;;;;;8.70;4.70;;;;;;;25.72;40.23;101023.02;103341;1297;61497;-83
2023/09/21 00:16:00;;;;;;;9.70;5.40;;;;;;;25.72;40.09;101019.15;103316;1292;61408;-83
2023/09/21 00:18:26;;;;;;;9.00;5.00;;;;;;;25.72;40.22;101013.23;103429;1294;61375;-83
2023/09/21 00:20:55;;;;;;;8.10;5.10;;;;;;;25.72;40.20;101015.18;103200;1291;61389;-83
2023/09/21 00:23:28;;;;;;;8.40;5.40;;;;;;;25.73;40.30;101017.86;103232;1291;74491;-83
2023/09/21 00:26:00;;;;;;;9.40;5.00;;;;;;;25.72;40.24;101013.95;103422;1291;61312;-84
2023/09/21 00:28:30;;;;;;;7.90;5.10;;;;;;;25.72;40.33;101012.48;103313;1291;61299;-83
2023/09/21 00:30:57;;;;;;;7.20;4.70;;;;;;;25.72;40.43;101009.06;103269;1292;64609;-82
2023/09/21 00:33:27;;;;;;;8.70;5.20;;;;;;;25.72;40.28;101010.68;103361;1291;61340;-83
2023/09/21 00:35:53;;;;;;;6.80;4.70;;;;;;;25.72;40.14;101009.97;103324;1292;62448;-84
2023/09/21 00:38:19;;;;;;;9.50;5.10;;;;;;;25.72;40.31;101013.21;103468;1292;61317;-83
2023/09/21 00:40:45;;;;;;;8.60;5.00;;;;;;;25.72;40.36;101012.88;103375;1296;61410;-83
2023/09/21 00:43:21;;;;;;;10.70;5.90;;;;;;;25.72;40.34;101009.43;103267;1291;61411;-83
2023/09/21 00:45:52;;;;;;;11.20;5.60;;;;;;;25.72;40.25;101008.05;103391;1292;61398;-83
2023/09/21 00:48:23;;;;;;;7.70;5.10;;;;;;;25.72;40.27;101008.38;103431;1291;61448;-83
2023/09/21 00:50:49;;;;;;;8.90;5.10;;;;;;;25.72;40.35;101005.88;103261;1291;64256;-83
2023/09/21 00:53:15;;;;;;;9.40;5.60;;;;;;;25.72;40.38;101005.31;103283;1291;61371;-83
2023/09/21 00:55:44;;;;;;;8.20;5.30;;;;;;;25.72;40.45;101010.55;103460;1291;61437;-83
2023/09/21 00:58:09;;;;;;;7.40;5.00;;;;;;;25.72;40.33;101009.13;103141;1291;61739;-83
2023/09/21 01:00:37;;;;;;;8.20;5.50;;;;;;;25.72;40.27;101006.23;103524;1291;61638;-83
2023/09/21 01:03:11;;;;;;;8.80;5.60;;;;;;;25.71;40.30;101010.93;103006;1292;62556;-83
2023/09/21 01:05:45;;;;;;;8.70;4.90;;;;;;;25.71;40.08;101008.99;103484;1296;62184;-83
2023/09/21 01:08:13;;;;;;;7.80;5.20;;;;;;;25.71;40.28;101003.41;103441;1290;61351;-83
2023/09/21 01:10:44;;;;;;;7.70;5.30;;;;;;;25.71;40.35;101003.60;103337;1291;63842;-83
2023/09/21 01:13:12;;;;;;;7.70;5.20;;;;;;;25.71;40.35;101004.87;103202;1291;65796;-82
2023/09/21 01:15:46;;;;;;;9.30;5.50;;;;;;;25.71;40.25;101008.09;103301;1291;62186;-82
2023/09/21 01:18:19;;;;;;;8.90;5.20;;;;;;;25.71;40.22;101002.88;103382;1296;61309;-83
2023/09/21 01:20:55;;;;;;;7.00;4.70;;;;;;;25.70;40.32;100994.63;103307;1291;63847;-82
2023/09/21 01:23:25;;;;;;;8.30;5.10;;;;;;;25.71;40.33;100999.30;103266;1291;65834;-82
2023/09/21 01:25:52;;;;;;;10.00;5.10;;;;;;;25.70;40.31;100998.61;103297;1291;61202;-82
2023/09/21 01:28:22;;;;;;;9.30;5.30;;;;;;;25.71;40.26;101001.46;103410;1291;61350;-82
2023/09/21 01:30:49;;;;;;;9.30;5.00;;;;;;;25.70;40.40;101001.85;102944;1300;64048;-81
2023/09/21 01:33:15;;;;;;;10.40;5.00;;;;;;;25.70;40.27;101001.66;103307;1294;61848;-82
2023/09/21 01:35:44;;;;;;;10.50;5.20;;;;;;;25.71;40.33;100997.50;103571;1292;62207;-83
2023/09/21 01:38:10;;;;;;;;;;;;;;;25.70;40.43;100996.27;103276;1291;61075;-83
2023/09/21 01:40:36;;;;;;;7.70;5.30;;;;;;;25.68;40.29;100990.67;103319;1291;61383;-82
2023/09/21 01:43:09;;;;;;;8.40;5.40;;;;;;;25.69;40.36;100990.61;103283;1299;61489;-82
2023/09/21 01:45:37;;;;;;;6.80;4.80;;;;;;;25.68;40.41;100992.34;103411;1291;61516;-82
2023/09/21 01:48:09;;;;;;;10.70;5.40;;;;;;;25.69;40.39;100993.37;103513;1291;61273;-83
2023/09/21 01:50:39;;;;;;;7.90;5.00;;;;;;;25.69;40.30;100987.42;103314;1291;63923;-83
2023/09/21 01:53:09;;;;;;;8.30;5.10;;;;;;;25.68;40.27;100990.87;103179;1291;65661;-82
2023/09/21 01:55:35;;;;;;;6.90;5.40;;;;;;;25.68;40.31;100988.70;103405;1292;61350;-82
2023/09/21 01:58:05;;;;;;;10.00;5.10;;;;;;;25.69;40.36;100990.66;103533;1291;61395;-82
2023/09/21 02:00:35;;;;;;;8.90;5.00;;;;;;;25.68;40.20;100988.14;103372;1291;63926;-82
2023/09/21 02:03:03;;;;;;;;;;;;;;;25.69;40.36;100982.16;103450;1291;65917;-82
2023/09/21 02:05:28;;;;;;;7.10;5.00;;;;;;;25.66;40.31;100982.58;103535;1291;61285;-81
2023/09/21 02:07:55;;;;;;;9.80;5.90;;;;;;;25.67;40.45;100979.65;103362;1294;62298;-82
2023/09/21 02:10:20;;;;;;;9.70;5.20;;;;;;;25.67;40.30;100983.20;103555;1292;62004;-82
2023/09/21 02:12:57;;;;;;;9.20;5.20;;;;;;;25.67;40.34;100982.12;103496;1291;61391;-82
2023/09/21 02:15:23;;;;;;;11.80;5.60;;;;;;;25.67;40.28;100985.56;103563;1291;61394;-82
2023/09/21 02:17:49;;;;;;;8.60;5.30;;;;;;;25.67;40.42;100985.17;103439;1295;61334;-83
2023/09/21 02:20:17;;;;;;;8.30;5.20;;;;;;;25.68;40.40;100983.69;103289;1295;62043;-82
2023/09/21 02:22:52;;;;;;;9.40;5.20;;;;;;;25.67;40.30;100980.33;103411;1292;65566;-82
2023/09/21 02:25:19;;;;;;;10.10;5.10;;;;;;;25.68;40.28;100978.31;103372;1294;59405;-82
2023/09/21 02:27:46;;;;;;;9.30;5.50;;;;;;;25.67;40.28;100973.67;103328;1293;61426;-82
2023/09/21 02:30:16;;;;;;;7.20;5.30;;;;;;;25.67;40.45;100966.98;103358;1293;63892;-83
2023/09/21 02:32:49;;;;;;;10.70;5.80;;;;;;;25.67;40.39;100968.95;103387;1291;65763;-82
2023/09/21 02:35:16;;;;;;;7.90;4.70;;;;;;;25.68;40.39;100966.05;103260;1291;61333;-83
2023/09/21 02:37:44;;;;;;;7.90;5.40;;;;;;;25.67;40.29;100963.02;103419;1292;61225;-83
2023/09/21 02:40:16;;;;;;;7.50;5.30;;;;;;;25.67;40.37;100967.35;103351;1291;63980;-83
2023/09/21 02:42:43;;;;;;;7.20;5.40;;;;;;;25.67;40.24;100968.23;103338;1291;65933;-83
2023/09/21 02:45:10;;;;;;;7.60;4.90;;;;;;;25.68;40.45;100970.71;103580;1291;61420;-83
2023/09/21 02:47:37;;;;;;;8.30;5.20;;;;;;;25.67;40.37;100969.14;103333;1294;61398;-83
2023/09/21 02:50:12;;;;;;;9.20;5.10;;;;;;;25.67;40.53;100968.23;103368;1295;63823;-83
2023/09/21 02:52:43;;;;;;;;;;;;;;;25.67;40.44;100967.04;103342;1291;65900;-83
2023/09/21 02:55:08;;;;;;;7.30;5.30;;;;;;;25.65;40.49;100963.95;103350;1291;61365;-83
2023/09/21 02:57:35;;;;;;;8.70;4.80;;;;;;;25.65;40.47;100965.55;103310;1291;61384;-83
2023/09/21 03:00:11;;;;;;;7.10;4.80;;;;;;;25.65;40.34;100969.36;103335;1291;61438;-83
2023/09/21 03:02:38;;;;;;;8.10;5.40;;;;;;;25.65;40.37;100967.94;103174;1294;65711;-83
2023/09/21 03:05:04;;;;;;;8.20;5.10;;;;;;;25.65;40.30;100972.61;103341;1292;315997;-83
2023/09/21 03:07:35;;;;;;;8.80;5.50;;;;;;;25.65;40.36;100977.96;103304;1291;61310;-82
2023/09/21 03:10:09;;;;;;;9.60;5.30;;;;;;;25.65;40.35;100977.05;103378;1291;63881;-83
2023/09/21 03:12:37;;;;;;;7.10;5.20;;;;;;;25.65;40.50;100979.41;103469;1291;65722;-82
2023/09/21 03:15:15;;;;;;;10.10;5.70;;;;;;;25.65;40.42;100983.37;103499;1291;61350;-82
2023/09/21 03:17:46;;;;;;;9.10;5.50;;;;;;;25.65;40.38;100982.11;103397;1291;61441;-83
2023/09/21 03:20:31;;;;;;;7.50;5.50;;;;;;;25.66;40.44;100983.17;103421;1291;61394;-83
2023/09/21 03:23:05;;;;;;;8.10;5.20;;;;;;;25.65;40.52;100983.52;103243;1291;73355;-82
2023/09/21 03:25:33;;;;;;;8.60;5.20;;;;;;;25.66;40.37;100981.58;103391;1291;61820;-82
2023/09/21 03:28:00;;;;;;;8.00;5.10;;;;;;;25.66;40.38;100981.38;103387;1291;61465;-82
2023/09/21 03:30:26;;;;;;;8.40;5.40;;;;;;;25.65;40.35;100981.40;103316;1296;63787;-83
2023/09/21 03:32:52;;;;;;;8.60;5.60;;;;;;;25.66;40.43;100982.80;103351;1291;61325;-82
2023/09/21 03:35:20;;;;;;;10.00;5.90;;;;;;;25.65;40.49;100982.28;103236;1295;61378;-82
2023/09/21 03:37:48;;;;;;;10.30;6.50;;;;;;;25.65;40.30;100980.01;103186;1292;61403;-82
2023/09/21 03:40:14;;;;;;;10.00;6.40;;;;;;;25.64;40.28;100976.45;103208;1292;62316;-81
2023/09/21 03:42:41;;;;;;;11.20;5.40;;;;;;;25.64;40.16;100978.66;102968;1292;61411;-81
2023/09/21 03:45:08;;;;;;;8.80;6.10;;;;;;;25.63;40.24;100977.30;103141;1295;61486;-82
2023/09/21 03:47:34;;;;;;;9.10;6.00;;;;;;;25.62;40.27;100976.13;103119;1296;61361;-83
2023/09/21 03:50:05;;;;;;;9.80;7.20;;;;;;;25.60;40.32;100975.34;103409;1291;61368;-83
2023/09/21 03:52:31;;;;;;;10.40;6.40;;;;;;;25.57;40.39;100975.25;103439;1294;65864;-82
2023/09/21 03:55:00;;;;;;;9.60;6.00;;;;;;;25.53;40.23;100974.49;103660;1293;62292;-83
2023/09/21 03:57:26;;;;;;;12.00;6.70;;;;;;;25.51;40.21;100975.09;103440;1294;61385;-82
2023/09/21 03:59:51;;;;;;;14.80;7.00;;;;;;;25.49;40.34;100972.21;103878;1294;61290;-82
2023/09/21 04:02:19;;;;;;;11.40;7.20;;;;;;;25.47;40.32;100966.97;103481;1293;61348;-82
2023/09/21 04:04:44;;;;;;;11.80;7.50;;;;;;;25.45;40.27;100970.03;103115;1295;61360;-82
2023/09/21 04:07:15;;;;;;;14.10;6.70;;;;;;;25.43;40.24;100973.39;103295;1294;61404;-83
2023/09/21 04:09:41;;;;;;;12.30;7.60;;;;;;;25.41;40.20;100971.93;103142;1297;63797;-83
2023/09/21 04:12:08;;;;;;;12.40;7.30;;;;;;;25.40;40.30;100970.10;103218;1293;61407;-82
2023/09/21 04:14:34;;;;;;;15.80;7.80;;;;;;;25.38;40.08;100971.17;103260;1294;61417;-83
2023/09/21 04:16:59;;;;;;;15.10;7.40;;;;;;;25.37;40.17;100975.90;103226;1297;61403;-82
2023/09/21 04:19:25;;;;;;;13.80;7.70;;;;;;;25.35;40.06;100975.53;103484;1294;61403;-81
2023/09/21 04:21:50;;;;;;;13.00;7.90;;;;;;;25.34;40.10;100979.09;103074;1294;61399;-82
2023/09/21 04:24:19;;;;;;;12.40;7.60;;;;;;;25.32;40.21;100980.12;103258;1294;61392;-82
2023/09/21 04:26:45;;;;;;;;;;;;;;;25.31;40.09;100984.52;103303;1294;61319;-82
2023/09/21 04:29:11;;;;;;;16.80;8.10;;;;;;;25.27;40.28;100988.42;103217;1293;61405;-82
2023/09/21 04:31:38;;;;;;;18.00;8.60;;;;;;;25.26;40.00;100989.46;102953;1295;61265;-82
2023/09/21 04:34:04;;;;;;;18.70;8.40;;;;;;;25.24;40.00;100988.38;103352;1296;61328;-81
2023/09/21 04:36:30;;;;;;;16.20;8.10;;;;;;;25.22;40.22;100986.50;102994;1294;61837;-82
2023/09/21 04:38:57;;;;;;;21.80;8.60;;;;;;;25.22;40.12;100987.65;103302;1294;61391;-82
2023/09/21 04:41:23;;;;;;;14.60;8.30;;;;;;;25.20;40.06;100990.37;103601;1294;61321;-82
2023/09/21 04:43:49;;;;;;;16.10;8.60;;;;;;;25.17;39.99;100994.02;103810;1293;61393;-82
2023/09/21 04:46:16;;;;;;;10.30;7.70;;;;;;;25.14;40.00;100994.23;104106;1291;61389;-83
2023/09/21 04:48:42;;;;;;;17.60;7.90;;;;;;;25.14;40.21;100995.20;104444;1292;61284;-82
2023/09/21 04:51:12;;;;;;;16.60;7.90;;;;;;;25.13;40.37;100996.49;104360;1294;61408;-82
2023/09/21 04:53:38;;;;;;;17.70;8.50;;;;;;;25.13;40.29;100997.23;104536;1293;65565;-83
2023/09/21 04:56:04;;;;;;;18.70;9.30;;;;;;;25.12;40.22;100995.15;104869;1293;59554;-82
2023/09/21 04:58:29;;;;;;;16.80;9.20;;;;;;;25.11;40.29;100995.73;104794;1293;61731;-82
2023/09/21 05:00:55;;;;;;;13.40;8.70;;;;;;;25.08;40.30;100995.98;104883;1294;61388;-82
2023/09/21 05:03:21;;;;;;;17.70;9.00;;;;;;;25.03;40.15;100998.07;104719;1297;61351;-83
2023/09/21 05:05:47;;;;;;;21.30;8.70;;;;;;;24.96;40.41;100999.89;104268;1296;61273;-82
2023/09/21 05:08:13;;;;;;;25.20;9.80;;;;;;;24.92;40.35;100999.46;104534;1292;59399;-82
2023/09/21 05:10:41;;;;;;;24.00;8.80;;;;;;;24.92;40.52;100998.30;104289;1291;61332;-81
2023/09/21 05:13:07;;;;;;;15.70;8.30;;;;;;;24.86;40.68;100995.91;104286;1291;64924;-82
2023/09/21 05:15:33;;;;;;;19.80;9.20;;;;;;;24.87;40.68;100991.16;104196;1291;59238;-82
2023/09/21 05:17:58;;;;;;;16.80;8.10;;;;;;;24.89;40.70;100989.53;104254;1291;61437;-82
2023/09/21 05:20:24;;;;;;;14.50;8.10;;;;;;;24.90;40.76;100987.29;104229;1293;61350;-82
2023/09/21 05:22:51;;;;;;;17.40;7.80;;;;;;;24.90;40.73;100982.27;103983;1293;62087;-82
2023/09/21 05:25:16;;;;;;;15.80;7.80;;;;;;;24.91;40.56;100980.39;103799;1291;61799;-81
2023/09/21 05:27:42;;;;;;;20.10;8.10;;;;;;;24.92;40.75;100979.35;103981;1292;61483;-82
2023/09/21 05:30:11;;;;;;;13.40;8.00;;;;;;;24.92;40.73;100981.48;103969;1292;61156;-82
2023/09/21 05:32:37;;;;;;;15.50;8.20;;;;;;;24.93;40.61;100982.56;103655;1293;61353;-82
2023/09/21 05:35:07;;;;;;;12.80;7.50;;;;;;;24.93;40.66;100981.23;104084;1293;61247;-82
2023/09/21 05:37:35;;;;;;;15.20;8.20;;;;;;;24.95;40.83;100981.67;104150;1294;65824;-82
2023/09/21 05:40:05;;;;;;;17.30;8.60;;;;;;;24.97;40.86;100980.27;104025;1294;61446;-82
2023/09/21 05:42:31;;;;;;;13.90;8.20;;;;;;;24.98;40.89;100979.58;103951;1293;61139;-81
2023/09/21 05:44:56;;;;;;;13.10;7.60;;;;;;;25.00;40.81;100981.27;104088;1293;61462;-82
2023/09/21 05:47:25;;;;;;;19.50;8.80;;;;;;;25.00;40.74;100977.64;104330;1296;61389;-82
2023/09/21 05:49:51;;;;;;;12.90;7.20;;;;;;;24.99;40.75;100975.16;104409;1294;61240;-82
2023/09/21 05:52:18;;;;;;;19.60;9.90;;;;;;;24.99;40.76;100972.86;104640;1293;61345;-81
2023/09/21 05:54:47;;;;;;;20.80;9.20;;;;;;;24.93;40.88;100975.48;104022;1291;62576;-81
2023/09/21 05:57:13;;;;;;;18.40;8.30;;;;;;;24.84;40.80;100972.63;104323;1297;61364;-82
2023/09/21 05:59:39;;;;;;;18.20;8.90;;;;;;;24.78;40.99;100975.01;104363;1293;61780;-82
2023/09/21 06:02:07;;;;;;;15.60;7.90;;;;;;;24.75;41.19;100978.13;104535;1294;61309;-83
2023/09/21 06:04:34;;;;;;;25.30;9.30;;;;;;;24.75;41.22;100986.42;104404;1293;63756;-82
2023/09/21 06:07:04;;;;;;;21.60;8.50;;;;;;;24.73;41.37;100986.55;104736;1293;65688;-82
2023/09/21 06:09:30;;;;;;;18.30;8.80;;;;;;;24.70;41.40;100989.85;104587;1294;61282;-82
2023/09/21 06:11:56;;;;;;;20.50;9.10;;;;;;;24.72;41.56;100990.27;104604;1293;61695;-82
2023/09/21 06:14:22;;;;;;;22.10;8.20;;;;;;;24.75;41.52;100988.16;104751;1293;61399;-82
2023/09/21 06:16:49;;;;;;;19.00;8.20;;;;;;;24.80;41.73;100988.86;104371;1293;61273;-82
2023/09/21 06:19:15;;;;;;;15.50;8.00;;;;;;;24.84;41.67;100992.25;104591;1293;61958;-82
2023/09/21 06:21:42;;;;;;;17.40;8.70;;;;;;;24.87;41.65;100995.25;104497;1294;61393;-82
2023/09/21 06:24:09;;;;;;;18.90;8.80;;;;;;;24.90;41.63;100990.36;104578;1293;61321;-82
2023/09/21 06:26:35;;;;;;;20.70;9.40;;;;;;;24.92;41.60;100992.52;104263;1294;61647;-82
2023/09/21 06:29:00;;;;;;;16.00;9.30;;;;;;;24.90;41.68;100990.70;104266;1294;61412;-82
2023/09/21 06:31:27;;;;;;;18.20;7.80;;;;;;;24.88;41.57;100992.48;103935;1292;61504;-81
2023/09/21 06:33:57;;;;;;;15.50;7.80;;;;;;;24.87;41.64;100990.57;104278;1296;61251;-82
2023/09/21 06:36:33;;;;;;;18.80;8.70;;;;;;;24.89;41.69;100988.30;104209;1294;65705;-81
2023/09/21 06:38:59;;;;;;;21.50;9.30;;;;;;;24.84;41.69;100988.70;104326;1293;61356;-81
2023/09/21 06:41:25;;;;;;;14.40;8.70;;;;;;;24.72;41.77;100988.27;104141;1293;61282;-82
2023/09/21 06:43:51;;;;;;;15.40;7.70;;;;;;;24.62;41.91;100989.44;103996;1294;63462;-81
2023/09/21 06:46:17;;;;;;;15.90;8.30;;;;;;;24.58;42.12;100985.38;103865;1294;61368;-82
2023/09/21 06:48:43;;;;;;;14.50;8.20;;;;;;;24.62;42.14;100987.49;104020;1294;61509;-82
2023/09/21 06:51:08;;;;;;;17.40;7.90;;;;;;;24.62;42.11;100986.56;104127;1293;61455;-81
2023/09/21 06:53:35;;;;;;;18.10;7.80;;;;;;;24.62;42.16;100989.27;104271;1292;61270;-82
2023/09/21 06:56:01;;;;;;;20.80;7.70;;;;;;;24.60;42.20;100990.09;104013;1293;64050;-81
2023/09/21 06:58:28;;;;;;;18.40;7.60;;;;;;;24.60;42.27;100990.34;104268;1294;61390;-81
2023/09/21 07:00:55;;;;;;;18.60;8.00;;;;;;;24.56;42.38;100992.75;104071;1295;61291;-80
2023/09/21 07:03:21;;;;;;;19.20;7.10;;;;;;;24.56;42.58;100992.80;104516;1293;61307;-81
2023/09/21 07:05:48;;;;;;;16.50;7.10;;;;;;;24.58;42.69;100990.98;104219;1294;61347;-81
2023/09/21 07:08:15;;;;;;;18.10;7.50;;;;;;;24.62;42.72;100992.01;104157;1292;61405;-81
2023/09/21 07:10:40;;;;;;;15.70;7.30;;;;;;;24.61;42.77;100997.05;104111;1294;61414;-81
2023/09/21 07:13:07;;;;;;;13.00;7.60;;;;;;;24.62;42.70;100998.83;104353;1291;61670;-81
2023/09/21 07:15:33;;;;;;;22.10;7.10;;;;;;;24.57;42.65;101002.75;104031;1294;61440;-81
2023/09/21 07:17:59;;;;;;;19.30;7.60;;;;;;;24.51;42.74;100998.98;103924;1297;61323;-81
2023/09/21 07:20:26;;;;;;;9.10;6.10;;;;;;;24.43;42.76;100997.27;103975;1294;61339;-81
2023/09/21 07:22:55;;;;;;;12.50;6.50;;;;;;;24.46;42.82;100995.11;104085;1291;61392;-80
2023/09/21 07:25:22;;;;;;;12.00;6.00;;;;;;;24.52;42.86;100994.95;103906;1293;72492;-81
2023/09/21 07:27:51;;;;;;;19.10;6.80;;;;;;;24.58;42.73;100996.37;104083;1294;74546;-80
2023/09/21 07:30:17;;;;;;;19.40;6.30;;;;;;;24.59;42.70;100996.86;104114;1294;60112;-81
2023/09/21 07:32:43;;;;;;;13.30;6.30;;;;;;;24.62;42.71;100995.59;104233;1291;61724;-81
2023/09/21 07:35:10;;;;;;;19.00;6.70;;;;;;;24.60;42.71;100998.76;104425;1292;72174;-81
2023/09/21 07:37:36;;;;;;;11.60;6.40;;;;;;;24.59;42.73;100996.81;104498;1292;59399;-81
2023/09/21 07:40:06;;;;;;;18.20;6.90;;;;;;;24.59;42.67;100997.23;104430;1292;61470;-82
2023/09/21 07:42:35;;;;;;;15.80;7.40;;;;;;;24.60;42.71;100998.38;104195;1294;61385;-82
2023/09/21 07:45:01;;;;;;;14.10;6.10;;;;;;;24.58;42.71;101002.66;104324;1297;63932;-81
2023/09/21 07:47:27;;;;;;;9.80;6.10;;;;;;;24.61;42.65;101004.83;104025;1297;61447;-82
2023/09/21 07:49:55;;;;;;;15.00;6.40;;;;;;;24.68;42.48;101004.64;104104;1296;61318;-81
2023/09/21 07:52:30;;;;;;;15.10;6.10;;;;;;;24.74;42.56;101001.96;104314;1294;61387;-81
2023/09/21 07:54:56;;;;;;;17.70;6.60;;;;;;;24.75;42.55;100998.60;104395;1295;63891;-81
2023/09/21 07:57:22;;;;;;;11.30;6.40;;;;;;;24.74;42.50;101001.77;104280;1295;60711;-82
2023/09/21 07:59:48;;;;;;;16.00;6.30;;;;;;;24.72;42.57;100998.14;103770;1300;60262;-82
2023/09/21 08:02:14;;;;;;;12.40;6.00;;;;;;;24.74;42.66;100997.64;104186;1298;61127;-81
2023/09/21 08:04:39;;;;;;;14.00;5.90;;;;;;;24.73;42.61;100992.11;104149;1297;61377;-81
2023/09/21 08:07:05;;;;;;;19.10;5.80;;;;;;;24.75;42.56;100991.63;103979;1300;59597;-81
2023/09/21 08:09:33;;;;;;;11.40;5.90;;;;;;;24.81;42.67;100992.95;103724;1297;61412;-82
2023/09/21 08:11:59;;;;;;;9.00;5.70;;;;;;;24.87;42.66;100989.83;103971;1295;61297;-82
2023/09/21 08:14:26;;;;;;;11.60;5.80;;;;;;;24.90;42.46;100990.90;104616;1292;61412;-83
2023/09/21 08:16:55;;;;;;;11.20;6.20;;;;;;;24.87;42.52;100990.40;104438;1295;72442;-82
2023/09/21 08:19:21;;;;;;;11.20;5.80;;;;;;;24.87;42.42;100986.62;104760;1293;66006;-82
2023/09/21 08:21:47;;;;;;;11.40;5.80;;;;;;;24.89;42.37;100984.64;105059;1294;59358;-83
2023/09/21 08:24:13;;;;;;;11.60;5.90;;;;;;;24.94;42.36;100981.21;104805;1294;61278;-82
2023/09/21 08:26:40;;;;;;;9.50;5.90;;;;;;;24.96;42.47;100975.98;104847;1294;71383;-82
2023/09/21 08:31:49;;;;;;;13.10;6.10;;;;;;;24.97;42.27;100974.11;104719;1291;61336;-83
2023/09/21 08:34:16;;;;;;;11.70;6.40;;;;;;;24.97;42.13;100970.36;104545;1292;61309;-82
2023/09/21 08:36:44;;;;;;;14.90;6.20;;;;;;;24.97;42.13;100964.71;104686;1291;59946;-82
2023/09/21 08:39:10;;;;;;;17.90;6.10;;;;;;;25.00;42.27;100962.70;104684;1291;65219;-82
2023/09/21 08:41:38;;;;;;;13.60;6.30;;;;;;;25.01;42.14;100960.25;104731;1293;61309;-83
2023/09/21 08:44:04;;;;;;;14.60;6.50;;;;;;;25.03;42.03;100958.07;104870;1291;59673;-82
2023/09/21 08:46:30;;;;;;;12.20;6.10;;;;;;;25.06;42.10;100958.77;104727;1296;61376;-83
2023/09/21 08:48:58;;;;;;;15.60;6.40;;;;;;;25.09;42.12;100952.70;104784;1294;65863;-83
2023/09/21 08:51:24;;;;;;;16.10;6.30;;;;;;;25.13;42.15;100946.63;105032;1291;61233;-83
2023/09/21 08:53:51;;;;;;;18.10;6.50;;;;;;;25.18;42.17;100946.39;105024;1294;61273;-83
2023/09/21 08:56:20;;;;;;;16.20;6.40;;;;;;;25.22;42.28;100947.98;104977;1292;59216;-81
2023/09/21 08:58:46;;;;;;;14.70;6.50;;;;;;;25.24;42.29;100949.59;105032;1294;65636;-82
2023/09/21 09:01:12;;;;;;;12.00;6.60;;;;;;;25.31;42.36;100948.30;105222;1294;61386;-81
2023/09/21 09:03:39;;;;;;;18.20;6.70;;;;;;;25.35;42.18;100947.31;105050;1294;59649;-82
2023/09/21 09:06:05;;;;;;;21.70;6.40;;;;;;;25.33;42.08;100944.36;104755;1292;63891;-81
2023/09/21 09:08:31;;;;;;;17.60;6.80;;;;;;;25.33;41.94;100944.00;104743;1293;62487;-82
2023/09/21 09:10:56;;;;;;;12.30;6.20;;;;;;;25.35;41.97;100941.02;105132;1294;60015;-82
2023/09/21 09:13:31;;;;;;;24.70;6.90;;;;;;;25.35;41.81;100934.88;104861;1293;61088;-82
2023/09/21 09:15:58;;;;;;;11.40;6.30;;;;;;;25.31;41.78;100934.23;104914;1292;64006;-81
2023/09/21 09:18:25;;;;;;;9.50;6.20;;;;;;;25.30;41.75;100934.35;104522;1292;64808;-82
2023/09/21 09:20:50;;;;;;;13.50;6.60;;;;;;;25.32;41.76;100929.31;104675;1297;61405;-82
2023/09/21 09:23:17;;;;;;;15.20;6.50;;;;;;;25.35;41.84;100926.23;104738;1294;61416;-81
2023/09/21 09:25:43;;;;;;;12.20;6.20;;;;;;;25.38;41.74;100925.08;104615;1293;61311;-82
2023/09/21 09:28:09;;;;;;;13.80;6.50;;;;;;;25.39;41.64;100922.75;104543;1296;61400;-81
2023/09/21 09:30:35;;;;;;;13.10;6.50;;;;;;;25.39;41.40;100920.77;104418;1294;61323;-83
2023/09/21 09:33:03;;;;;;;11.60;6.70;;;;;;;25.41;41.56;100924.98;104218;1294;61384;-81
2023/09/21 09:35:30;;;;;;;13.20;6.40;;;;;;;25.41;41.38;100925.43;104606;1294;61304;-82
2023/09/21 09:37:57;;;;;;;17.40;6.40;;;;;;;25.44;41.26;100918.57;104320;1294;61276;-82
2023/09/21 09:40:25;;;;;;;25.10;6.50;;;;;;;25.46;41.36;100916.92;104450;1296;61277;-82
2023/09/21 09:42:53;;;;;;;19.80;6.00;;;;;;;25.46;41.27;100918.02;104569;1294;61405;-82
2023/09/21 09:45:26;;;;;;;12.70;6.30;;;;;;;25.47;41.22;100920.14;104379;1296;61408;-82
2023/09/21 09:47:56;;;;;;;12.30;5.80;;;;;;;25.46;41.38;100921.05;104267;1293;65746;-82
2023/09/21 09:50:25;;;;;;;15.50;6.30;;;;;;;25.48;41.53;100923.09;104505;1291;61087;-82
2023/09/21 09:53:12;;;;;;;16.90;6.20;;;;;;;25.49;41.47;100923.88;104566;1292;61312;-82
2023/09/21 09:55:42;;;;;;;12.80;6.60;;;;;;;25.50;41.16;100918.38;104603;1293;63947;-82
2023/09/21 09:58:08;;;;;;;19.60;7.00;;;;;;;25.51;41.18;100915.38;104365;1292;66817;-82
2023/09/21 10:00:39;;;;;;;10.10;5.80;;;;;;;25.51;41.30;100914.67;104306;1294;61332;-82
2023/09/21 10:03:07;;;;;;;14.10;6.10;;;;;;;25.51;41.18;100914.33;104835;1294;61176;-82
2023/09/21 10:05:36;;;;;;;12.90;6.80;;;;;;;25.51;41.20;100910.95;104870;1292;63934;-82
2023/09/21 10:08:03;;;;;;;23.10;6.40;;;;;;;25.52;41.26;100909.24;104755;1291;65895;-82
2023/09/21 10:10:36;;;;;;;12.50;6.10;;;;;;;25.53;41.18;100905.66;104650;1292;61320;-83
2023/09/21 10:13:02;;;;;;;17.00;6.60;;;;;;;25.55;41.09;100904.05;104792;1291;61174;-82
2023/09/21 10:15:29;;;;;;;14.10;6.80;;;;;;;25.59;41.13;100903.55;104801;1291;61274;-82
2023/09/21 10:17:56;;;;;;;11.50;6.70;;;;;;;25.62;41.21;100900.80;105483;1292;65824;-83
2023/09/21 10:20:25;;;;;;;13.50;5.90;;;;;;;25.63;41.28;100895.42;104334;1294;61311;-83
2023/09/21 10:22:52;;;;;;;16.00;6.30;;;;;;;25.65;40.95;100893.64;104393;1292;61652;-82
2023/09/21 10:25:41;;;;;;;12.70;6.10;;;;;;;25.66;41.01;100894.46;104382;1297;64926;-82
2023/09/21 10:28:28;;;;;;;12.40;6.20;;;;;;;25.66;40.80;100892.98;104218;1294;65664;-82
2023/09/21 10:30:55;;;;;;;13.60;6.30;;;;;;;25.67;40.61;100892.53;104418;1294;61486;-82
2023/09/21 10:33:22;;;;;;;14.50;6.00;;;;;;;25.68;40.63;100882.52;104373;1293;59485;-82
2023/09/21 10:35:49;;;;;;;13.40;6.10;;;;;;;25.70;40.70;100875.89;104399;1291;64007;-82
2023/09/21 10:38:17;;;;;;;13.00;5.40;;;;;;;25.71;40.69;100872.16;104293;1292;65825;-83
2023/09/21 10:40:43;;;;;;;19.30;6.50;;;;;;;25.72;40.69;100868.15;104491;1295;59172;-82
2023/09/21 10:43:36;;;;;;;17.00;6.10;;;;;;;25.72;40.65;100867.55;103976;1294;61002;-82
2023/09/21 10:46:03;;;;;;;13.40;5.70;;;;;;;25.71;40.40;100863.20;104350;1292;63911;-82
2023/09/21 10:48:30;;;;;;;16.90;6.00;;;;;;;25.72;40.32;100859.86;104808;1293;67087;-82
2023/09/21 10:50:56;;;;;;;13.40;6.10;;;;;;;25.74;40.42;100856.98;104291;1293;59298;-82
2023/09/21 10:53:28;;;;;;;21.10;6.20;;;;;;;25.76;40.33;100854.99;104319;1292;59595;-82
2023/09/21 10:55:53;;;;;;;16.70;5.80;;;;;;;25.77;40.42;100850.18;104831;1294;73470;-83
2023/09/21 10:58:21;;;;;;;12.90;5.60;;;;;;;25.79;40.36;100843.92;104894;1293;61163;-83
2023/09/21 11:00:47;;;;;;;20.30;6.40;;;;;;;25.80;40.43;100839.70;105242;1294;61334;-82
2023/09/21 11:03:13;;;;;;;16.70;6.00;;;;;;;25.80;40.23;100833.21;105107;1293;59462;-81
2023/09/21 11:05:39;;;;;;;19.50;5.80;;;;;;;25.81;40.46;100830.56;105226;1294;63903;-83
2023/09/21 11:08:06;;;;;;;16.80;6.20;;;;;;;25.83;40.55;100828.02;105084;1294;61732;-83
2023/09/21 11:10:33;;;;;;;18.40;6.70;;;;;;;25.85;40.65;100823.35;104733;1292;61272;-82
2023/09/21 11:12:58;;;;;;;23.70;6.10;;;;;;;25.87;40.93;100820.67;104987;1294;61374;-82
2023/09/21 11:15:25;;;;;;;23.00;6.10;;;;;;;25.88;40.80;100819.09;105124;1293;61334;-80
2023/09/21 11:17:51;;;;;;;14.30;5.50;;;;;;;25.89;40.67;100819.54;104967;1293;59285;-81